Clarion, IA

09:27 CDT le 30 octobre 2014 (GMT -0500)
Clarion Municipal | Change Station
CLOSE
Current Station
Aéroport
Location: Clarion,
Altitude: 1161 ft
Stations météo à proximité

Alt. 1161 ft 42.74 °N, 93.76 °W | Updated 12 minutes ago

Overcast
Couvert
43 ° F
Paraît 40 ° F
N
5
Vent Variable Vent de ESE

Aujourd'hui
Haut(e) -- | Bas -- ° F
--% Risque de précip.
Hier
Haut(e) -- | Bas -- ° F
Precip. -- pouce
7:46 AM 6:10 PM
Lune montante, 44% visible
Pression 30.04 pouce
Visibilité 10.0 Miles terrestres
Nuages Couvert 7500 ft
Refroidissement éolien 40 ° F
Point de rosée 39 ° F
Humidité 87%
Précipitations 0.00 pouce
Profondeur de la couche neigeuse Non disponible.
UV 0 sur 12
Pollen .30 sur 12
Qualité de l'air Non disponible.
Flu Activity Non disponible.
METAR KCAV 301415Z AUTO 11004KT 10SM OVC075 06/04 A3004 RMK AO2

More Conditions Fewer Conditions

Pression 30.04 pouce
Visibilité 10.0 Miles terrestres
Nuages Couvert 7500 ft
Refroidissement éolien 40 ° F
Point de rosée 39 ° F
Humidité 87%
Précipitations 0.00 pouce
Profondeur de la couche neigeuse Non disponible.
UV 0 sur 12
Pollen .30 sur 12
Qualité de l'air Non disponible.
Flu Activity Non disponible.
METAR KCAV 301415Z AUTO 11004KT 10SM OVC075 06/04 A3004 RMK AO2

More Conditions Fewer Conditions

10-Day Weather Forecast

Almanac

Astronomie

Oct. 30, 2014 Lever Coucher
Temps réel
Crépuscule civil
Crépuscule nautique
Crépuscule astronomique
Lune
Durée de lumière visible
Longueur du jour
Tomorrow will be .
, % of the Moon is Illuminated

Extrêmes aujourd'hui

State Highs State Lows

Community

WunderPhotos

Upload Photos

1,766,371 Photos téléchargées !

WunderBlogs® & News

Nearby

Qualité de l'air

  Qualité de l'air Indice de la qualité de l'air Polluant
Not available.

Épaisseur de neige

Station Depth Altitude

Activité sismique

Ville Distance Mag. Time & Date
Minimum magnitude displayed is 2.5.

Températures des eaux côtières

Lieu Température

Stations météo à proximité